Princeton by the Sea, California
Current Conditions -  °F | °C
As of 11:55 PM on Friday 24 Oct 2014 (Local Time) from KHAF Reporting Station
Overcast Overcast  
Wind Chill: 63°   Ceiling: 4500
Heat Index: 63°   Visibility: 7mi
Dew Point: 59°   Wind: 16mph
Humidity: 88%   Direction: 160°SSE
Pressure: 29.93"   Gusts: NA
Location:  37.4511°N, 122.414°W
Report Text: KHAF 250655Z AUTO 16014KT 7SM OVC045 17/15 A2993 RMK AO2
Loading
Personal Weather Stations






























Interactive Weather Map
Tropical Storm Tracking
New forecast layout! Learn more

10-Day Weather Forecast

Advertisements
Track Severe Weather on mobile